Hovedside
METAR-TAF:

METAR-TAF

Lufthavner :

Hans Christian Andersen Airport

Odense, Danmark

breddegrad: 55-29N, lengdegrad: 010-20E, høyde over havet: 17 m

Gjeldene værobservasjon

Denne rapporten ble laget for 4 timer og 26 minutter siden, klokken 14:50 UTC
Vind 7 kt fra Øst, skiftende mellom Nordøst og Sørøst
Temperatur 20°C
Luftfuktighet 43%
Trykk 1027 hPa
Sikt 10 km eller mer
Få skyer i en høyde av 3500 ft

METAR: EKOD 201450Z 09007KT 040V140 9999 FEW035 20/07 Q1027

Tid: 21:16 (19:16 UTC)

Varsel

Denne rapporten ble laget for 7 timer og 23 minutter siden, klokken 11:53 UTC
Varsel gyldig fra 20. klokken 12 UTC til 20. klokken 16 UTC
Vind 10 kt fra Øst-sørøst
Sikt 10 km eller mer
Få skyer i en høyde av 3500 ft

TAF: EKOD 201153Z 2012/2016 12010KT 9999 FEW035

Værobservasjoner og værvarsel for over 4000 flyplasser (METAR- og TAF-rapporter).

Tilgjengelige stasjoner er representert av de røde og gule prikkene på kartet.

Hold musepekeren over prikken for å se navnet på stasjonen.

Klikk så for å se værobservasjoner og -varsler.

For å forandre kartet kan du klikke på den grønne knappen med svart kryss for å zoome inn, på den grønne knappen med strek for å zoome ut, eller på de grønne pilene for å se tilstøtende kart.


METAR-TAF: